Airfield :
LOGIN :

Register | Disclaimer

   EN    FR    IT 

 










Legend :    VFR   Marginal VFR   IFR   Intensive IFR   Very Intensive IFR
Visi :
Ceiling :
>= 8 km
>= 3000ft
5 to 8 km
1000 to 3000 ft
1500m to 5 km
500 to 1000 ft
800 to 1500m
200 to 500 ft
< 800m
< 200 ft
Symbols :   Thunderstorms  Fog  Heavy snow  Heavy precipitations  Wind > 20 kt
SIGMETs :     Misc.  Thunderstorms  Icing  Turbulence  Mountain Waves  Volcanic Ashes






- Airport Elevation : 124 ft
- IATA code : AVN


LFMV - Avignon Caumont

CURRENT METAR :
  • 271430Z AUTO 11013KT 9999 SCT018 SCT024 OVC033 08/06 Q1009 TEMPO 3000 BR BKN005

EXPIRED METARs :
  • 271400Z AUTO 11011KT 9999 FEW018 BKN026 BKN036 09/07 Q1009 TEMPO 3000 BR BKN005
  • 271330Z AUTO 11012KT 9999 SCT017 SCT024 BKN030 07/06 Q1010 TEMPO 3000 BR BKN005
  • 271300Z AUTO 13011KT 9999 SCT015 BKN020 OVC028 07/06 Q1011 TEMPO 3000 BR BKN005
  • 271230Z AUTO 13010KT 9999 BKN018 OVC023 06/05 Q1012 TEMPO 3000 BR BKN005
  • 271200Z AUTO 12012KT 9999 OVC017 06/04 Q1012 TEMPO 3000 BR BKN005

TAF TAF LFMV
Valid from the 27 at 09:00 until the 28 at 09:00 UTC


270800Z 2709/2809 14007KT 9999 BKN075
TEMPO 2709/2710 -RA BKN040
TEMPO 2710/2713 3000 -RA BR OVC010
PROB40
TEMPO 2713/2716 VRB05KT 3000 BR BKN005
BECMG 2717/2719 VRB03KT 5000 BR NSC
BECMG 2719/2721 34007KT
PROB40
TEMPO 2720/2722 1500 BR OVC003
BECMG 2722/2724 34012KT CAVOK
BECMG 2803/2805 33018KT
ATIS : +33 4 90 84 32 84



MET'MAP, your aeronautical weather chart ! - Copyright ORBIFLY December 2007 - Disclaimer

ORBIFLY MET'MAP TEAM :

Programming & Development : Alexandra Zaïnal
Concept & original design : Baudouin d'Aumeries
Assistance for programming : Marc-Olivier Méhu
Technical & hardware support : Manuel Goepfert

Contact : metmap@orbifly.com




SOURCES & CREDITS :

   NOAA